sensor_id;sensor_type;location;lat;lon;timestamp;P1;durP1;ratioP1;P2;durP2;ratioP2
15712;SDS011;7957;51.608;6.916;2023-09-19T00:00:22;7.67;;;3.33;;
15712;SDS011;7957;51.608;6.916;2023-09-19T00:02:52;8.10;;;3.37;;
15712;SDS011;7957;51.608;6.916;2023-09-19T00:05:22;9.13;;;3.40;;
15712;SDS011;7957;51.608;6.916;2023-09-19T00:07:53;7.27;;;3.30;;
15712;SDS011;7957;51.608;6.916;2023-09-19T00:10:20;8.30;;;3.50;;
15712;SDS011;7957;51.608;6.916;2023-09-19T00:12:49;7.70;;;3.00;;
15712;SDS011;7957;51.608;6.916;2023-09-19T00:15:19;7.97;;;3.57;;
15712;SDS011;7957;51.608;6.916;2023-09-19T00:17:46;8.00;;;3.70;;
15712;SDS011;7957;51.608;6.916;2023-09-19T00:20:13;9.33;;;3.40;;
15712;SDS011;7957;51.608;6.916;2023-09-19T00:22:42;7.23;;;3.07;;
15712;SDS011;7957;51.608;6.916;2023-09-19T00:25:10;8.00;;;3.17;;
15712;SDS011;7957;51.608;6.916;2023-09-19T00:27:40;8.93;;;3.43;;
15712;SDS011;7957;51.608;6.916;2023-09-19T00:30:08;8.07;;;3.37;;
15712;SDS011;7957;51.608;6.916;2023-09-19T00:32:43;7.27;;;3.30;;
15712;SDS011;7957;51.608;6.916;2023-09-19T00:35:12;7.47;;;3.13;;
15712;SDS011;7957;51.608;6.916;2023-09-19T00:37:40;11.20;;;4.03;;
15712;SDS011;7957;51.608;6.916;2023-09-19T00:40:08;6.27;;;3.20;;
15712;SDS011;7957;51.608;6.916;2023-09-19T00:42:37;9.27;;;3.50;;
15712;SDS011;7957;51.608;6.916;2023-09-19T00:45:06;7.20;;;3.43;;
15712;SDS011;7957;51.608;6.916;2023-09-19T00:47:35;8.00;;;3.47;;
15712;SDS011;7957;51.608;6.916;2023-09-19T00:50:05;8.40;;;3.23;;
15712;SDS011;7957;51.608;6.916;2023-09-19T00:52:35;9.40;;;3.43;;
15712;SDS011;7957;51.608;6.916;2023-09-19T00:55:04;8.03;;;3.67;;
15712;SDS011;7957;51.608;6.916;2023-09-19T00:57:32;11.40;;;3.80;;
15712;SDS011;7957;51.608;6.916;2023-09-19T00:59:59;10.03;;;3.43;;
15712;SDS011;7957;51.608;6.916;2023-09-19T01:02:33;10.87;;;3.87;;
15712;SDS011;7957;51.608;6.916;2023-09-19T01:05:00;11.33;;;3.60;;
15712;SDS011;7957;51.608;6.916;2023-09-19T01:07:31;7.03;;;3.30;;
15712;SDS011;7957;51.608;6.916;2023-09-19T01:09:59;10.37;;;3.77;;
15712;SDS011;7957;51.608;6.916;2023-09-19T01:12:28;8.70;;;3.37;;
15712;SDS011;7957;51.608;6.916;2023-09-19T01:15:02;9.93;;;3.47;;
15712;SDS011;7957;51.608;6.916;2023-09-19T01:17:38;8.60;;;3.53;;
15712;SDS011;7957;51.608;6.916;2023-09-19T01:20:15;6.57;;;3.27;;
15712;SDS011;7957;51.608;6.916;2023-09-19T01:22:56;8.63;;;3.50;;
15712;SDS011;7957;51.608;6.916;2023-09-19T01:28:31;7.43;;;3.50;;
15712;SDS011;7957;51.608;6.916;2023-09-19T01:31:06;10.70;;;4.03;;
15712;SDS011;7957;51.608;6.916;2023-09-19T01:33:56;11.37;;;3.80;;
15712;SDS011;7957;51.608;6.916;2023-09-19T01:36:26;8.30;;;3.47;;
15712;SDS011;7957;51.608;6.916;2023-09-19T01:38:54;10.50;;;3.60;;
15712;SDS011;7957;51.608;6.916;2023-09-19T01:41:26;11.53;;;3.80;;
15712;SDS011;7957;51.608;6.916;2023-09-19T01:44:17;7.90;;;3.40;;
15712;SDS011;7957;51.608;6.916;2023-09-19T01:46:50;7.90;;;3.33;;
15712;SDS011;7957;51.608;6.916;2023-09-19T01:49:22;8.10;;;3.53;;
15712;SDS011;7957;51.608;6.916;2023-09-19T01:52:00;8.50;;;3.47;;
15712;SDS011;7957;51.608;6.916;2023-09-19T01:54:33;7.17;;;3.50;;
15712;SDS011;7957;51.608;6.916;2023-09-19T01:57:07;10.40;;;3.90;;
15712;SDS011;7957;51.608;6.916;2023-09-19T01:59:41;11.00;;;3.87;;
15712;SDS011;7957;51.608;6.916;2023-09-19T02:02:15;8.97;;;3.70;;
15712;SDS011;7957;51.608;6.916;2023-09-19T02:04:43;9.80;;;3.60;;
15712;SDS011;7957;51.608;6.916;2023-09-19T02:07:10;10.77;;;3.97;;
15712;SDS011;7957;51.608;6.916;2023-09-19T02:09:40;7.27;;;3.20;;
15712;SDS011;7957;51.608;6.916;2023-09-19T02:12:08;8.40;;;3.73;;
15712;SDS011;7957;51.608;6.916;2023-09-19T02:14:35;6.90;;;3.70;;
15712;SDS011;7957;51.608;6.916;2023-09-19T02:17:03;10.80;;;3.87;;
15712;SDS011;7957;51.608;6.916;2023-09-19T02:19:37;9.30;;;3.60;;
15712;SDS011;7957;51.608;6.916;2023-09-19T02:22:05;9.13;;;3.83;;
15712;SDS011;7957;51.608;6.916;2023-09-19T02:24:35;9.87;;;3.60;;
15712;SDS011;7957;51.608;6.916;2023-09-19T02:27:03;7.37;;;3.43;;
15712;SDS011;7957;51.608;6.916;2023-09-19T02:29:31;10.53;;;3.60;;
15712;SDS011;7957;51.608;6.916;2023-09-19T02:31:59;13.33;;;4.57;;
15712;SDS011;7957;51.608;6.916;2023-09-19T02:34:26;7.03;;;3.50;;
15712;SDS011;7957;51.608;6.916;2023-09-19T02:36:55;9.30;;;3.77;;
15712;SDS011;7957;51.608;6.916;2023-09-19T02:39:22;7.60;;;3.37;;
15712;SDS011;7957;51.608;6.916;2023-09-19T02:41:49;7.63;;;3.47;;
15712;SDS011;7957;51.608;6.916;2023-09-19T02:44:16;7.93;;;3.57;;
15712;SDS011;7957;51.608;6.916;2023-09-19T02:46:45;7.77;;;3.50;;
15712;SDS011;7957;51.608;6.916;2023-09-19T02:49:12;9.00;;;3.87;;
15712;SDS011;7957;51.608;6.916;2023-09-19T02:51:39;10.00;;;3.73;;
15712;SDS011;7957;51.608;6.916;2023-09-19T02:54:08;7.50;;;3.23;;
15712;SDS011;7957;51.608;6.916;2023-09-19T02:56:35;10.03;;;4.33;;
15712;SDS011;7957;51.608;6.916;2023-09-19T02:59:02;11.70;;;4.13;;
15712;SDS011;7957;51.608;6.916;2023-09-19T03:01:30;8.47;;;3.60;;
15712;SDS011;7957;51.608;6.916;2023-09-19T03:04:02;8.87;;;3.63;;
15712;SDS011;7957;51.608;6.916;2023-09-19T03:06:31;8.73;;;3.93;;
15712;SDS011;7957;51.608;6.916;2023-09-19T03:08:58;9.47;;;3.90;;
15712;SDS011;7957;51.608;6.916;2023-09-19T03:11:26;8.03;;;4.00;;
15712;SDS011;7957;51.608;6.916;2023-09-19T03:13:53;8.27;;;3.47;;
15712;SDS011;7957;51.608;6.916;2023-09-19T03:16:21;7.43;;;3.30;;
15712;SDS011;7957;51.608;6.916;2023-09-19T03:18:48;8.43;;;4.00;;
15712;SDS011;7957;51.608;6.916;2023-09-19T03:21:15;10.93;;;3.77;;
15712;SDS011;7957;51.608;6.916;2023-09-19T03:23:42;8.27;;;3.30;;
15712;SDS011;7957;51.608;6.916;2023-09-19T03:26:11;7.83;;;3.30;;
15712;SDS011;7957;51.608;6.916;2023-09-19T03:28:40;8.07;;;3.40;;
15712;SDS011;7957;51.608;6.916;2023-09-19T03:31:08;7.20;;;3.37;;
15712;SDS011;7957;51.608;6.916;2023-09-19T03:33:35;7.90;;;3.40;;
15712;SDS011;7957;51.608;6.916;2023-09-19T03:36:02;7.83;;;3.77;;
15712;SDS011;7957;51.608;6.916;2023-09-19T03:38:30;8.80;;;3.07;;
15712;SDS011;7957;51.608;6.916;2023-09-19T03:40:58;8.70;;;3.23;;
15712;SDS011;7957;51.608;6.916;2023-09-19T03:43:26;11.37;;;4.17;;
15712;SDS011;7957;51.608;6.916;2023-09-19T03:45:54;6.53;;;3.20;;
15712;SDS011;7957;51.608;6.916;2023-09-19T03:48:22;8.70;;;3.13;;
15712;SDS011;7957;51.608;6.916;2023-09-19T03:50:49;9.13;;;3.73;;
15712;SDS011;7957;51.608;6.916;2023-09-19T03:53:16;8.57;;;3.37;;
15712;SDS011;7957;51.608;6.916;2023-09-19T03:55:44;9.63;;;3.73;;
15712;SDS011;7957;51.608;6.916;2023-09-19T03:58:12;9.30;;;3.57;;
15712;SDS011;7957;51.608;6.916;2023-09-19T04:00:42;8.53;;;3.60;;
15712;SDS011;7957;51.608;6.916;2023-09-19T04:03:12;7.70;;;3.10;;
15712;SDS011;7957;51.608;6.916;2023-09-19T04:05:44;9.00;;;3.17;;
15712;SDS011;7957;51.608;6.916;2023-09-19T04:08:12;8.07;;;3.43;;
15712;SDS011;7957;51.608;6.916;2023-09-19T04:10:39;8.60;;;3.57;;
15712;SDS011;7957;51.608;6.916;2023-09-19T04:13:08;7.70;;;3.60;;
15712;SDS011;7957;51.608;6.916;2023-09-19T04:15:35;8.93;;;3.43;;
15712;SDS011;7957;51.608;6.916;2023-09-19T04:18:03;8.73;;;3.47;;
15712;SDS011;7957;51.608;6.916;2023-09-19T04:20:32;9.63;;;3.50;;
15712;SDS011;7957;51.608;6.916;2023-09-19T04:22:59;7.40;;;3.43;;
15712;SDS011;7957;51.608;6.916;2023-09-19T04:25:26;7.83;;;3.27;;
15712;SDS011;7957;51.608;6.916;2023-09-19T04:27:53;8.93;;;3.90;;
15712;SDS011;7957;51.608;6.916;2023-09-19T04:30:20;6.43;;;3.40;;
15712;SDS011;7957;51.608;6.916;2023-09-19T04:32:46;9.27;;;3.43;;
15712;SDS011;7957;51.608;6.916;2023-09-19T04:35:15;9.53;;;3.90;;
15712;SDS011;7957;51.608;6.916;2023-09-19T04:37:44;9.73;;;3.57;;
15712;SDS011;7957;51.608;6.916;2023-09-19T04:40:11;8.33;;;3.37;;
15712;SDS011;7957;51.608;6.916;2023-09-19T04:42:39;8.60;;;3.10;;
15712;SDS011;7957;51.608;6.916;2023-09-19T04:45:07;8.33;;;3.70;;
15712;SDS011;7957;51.608;6.916;2023-09-19T04:47:35;10.07;;;3.47;;
15712;SDS011;7957;51.608;6.916;2023-09-19T04:50:03;8.67;;;3.63;;
15712;SDS011;7957;51.608;6.916;2023-09-19T04:52:36;9.80;;;4.00;;
15712;SDS011;7957;51.608;6.916;2023-09-19T04:55:07;8.37;;;3.80;;
15712;SDS011;7957;51.608;6.916;2023-09-19T04:57:35;8.80;;;3.97;;
15712;SDS011;7957;51.608;6.916;2023-09-19T05:00:04;8.73;;;4.07;;
15712;SDS011;7957;51.608;6.916;2023-09-19T05:02:37;9.07;;;3.73;;
15712;SDS011;7957;51.608;6.916;2023-09-19T05:05:05;10.37;;;4.37;;
15712;SDS011;7957;51.608;6.916;2023-09-19T05:07:33;12.83;;;4.57;;
15712;SDS011;7957;51.608;6.916;2023-09-19T05:10:00;7.53;;;3.70;;
15712;SDS011;7957;51.608;6.916;2023-09-19T05:12:31;7.97;;;4.03;;
15712;SDS011;7957;51.608;6.916;2023-09-19T05:14:59;11.43;;;4.67;;
15712;SDS011;7957;51.608;6.916;2023-09-19T05:17:26;8.87;;;4.57;;
15712;SDS011;7957;51.608;6.916;2023-09-19T05:19:53;9.20;;;4.00;;
15712;SDS011;7957;51.608;6.916;2023-09-19T05:22:20;9.10;;;4.17;;
15712;SDS011;7957;51.608;6.916;2023-09-19T05:24:49;13.17;;;4.60;;
15712;SDS011;7957;51.608;6.916;2023-09-19T05:27:18;8.30;;;4.30;;
15712;SDS011;7957;51.608;6.916;2023-09-19T05:29:47;10.80;;;4.20;;
15712;SDS011;7957;51.608;6.916;2023-09-19T05:32:15;7.53;;;4.10;;
15712;SDS011;7957;51.608;6.916;2023-09-19T05:34:43;13.00;;;4.27;;
15712;SDS011;7957;51.608;6.916;2023-09-19T05:37:10;11.93;;;4.23;;
15712;SDS011;7957;51.608;6.916;2023-09-19T05:39:38;10.57;;;4.10;;
15712;SDS011;7957;51.608;6.916;2023-09-19T05:42:05;10.77;;;4.40;;
15712;SDS011;7957;51.608;6.916;2023-09-19T05:44:33;11.57;;;4.20;;
15712;SDS011;7957;51.608;6.916;2023-09-19T05:47:01;10.67;;;4.47;;
15712;SDS011;7957;51.608;6.916;2023-09-19T05:49:28;9.27;;;4.37;;
15712;SDS011;7957;51.608;6.916;2023-09-19T05:51:55;13.17;;;4.17;;
15712;SDS011;7957;51.608;6.916;2023-09-19T05:54:24;9.07;;;4.10;;
15712;SDS011;7957;51.608;6.916;2023-09-19T05:56:51;10.17;;;4.20;;
15712;SDS011;7957;51.608;6.916;2023-09-19T05:59:18;9.67;;;3.80;;
15712;SDS011;7957;51.608;6.916;2023-09-19T06:01:47;8.27;;;3.80;;
15712;SDS011;7957;51.608;6.916;2023-09-19T06:04:16;9.60;;;4.03;;
15712;SDS011;7957;51.608;6.916;2023-09-19T06:06:44;8.87;;;3.63;;
15712;SDS011;7957;51.608;6.916;2023-09-19T06:09:13;6.93;;;3.67;;
15712;SDS011;7957;51.608;6.916;2023-09-19T06:11:41;9.43;;;3.50;;
15712;SDS011;7957;51.608;6.916;2023-09-19T06:14:08;9.73;;;3.93;;
15712;SDS011;7957;51.608;6.916;2023-09-19T06:16:35;5.87;;;3.53;;
15712;SDS011;7957;51.608;6.916;2023-09-19T06:19:03;9.43;;;3.90;;
15712;SDS011;7957;51.608;6.916;2023-09-19T06:21:35;7.77;;;3.40;;
15712;SDS011;7957;51.608;6.916;2023-09-19T06:24:02;11.57;;;4.57;;
15712;SDS011;7957;51.608;6.916;2023-09-19T06:26:29;8.60;;;3.47;;
15712;SDS011;7957;51.608;6.916;2023-09-19T06:28:57;11.30;;;3.80;;
15712;SDS011;7957;51.608;6.916;2023-09-19T06:31:24;8.87;;;3.43;;
15712;SDS011;7957;51.608;6.916;2023-09-19T06:33:51;7.97;;;3.80;;
15712;SDS011;7957;51.608;6.916;2023-09-19T06:36:18;8.30;;;3.67;;
15712;SDS011;7957;51.608;6.916;2023-09-19T06:38:47;10.73;;;3.60;;
15712;SDS011;7957;51.608;6.916;2023-09-19T06:41:16;8.80;;;3.37;;
15712;SDS011;7957;51.608;6.916;2023-09-19T06:43:43;9.53;;;3.70;;
15712;SDS011;7957;51.608;6.916;2023-09-19T06:46:10;11.07;;;4.30;;
15712;SDS011;7957;51.608;6.916;2023-09-19T06:48:38;10.37;;;3.80;;
15712;SDS011;7957;51.608;6.916;2023-09-19T06:51:04;13.43;;;4.30;;
15712;SDS011;7957;51.608;6.916;2023-09-19T06:53:31;8.23;;;3.87;;
15712;SDS011;7957;51.608;6.916;2023-09-19T06:56:01;11.97;;;4.37;;
15712;SDS011;7957;51.608;6.916;2023-09-19T06:58:28;10.93;;;3.60;;
15712;SDS011;7957;51.608;6.916;2023-09-19T07:00:56;9.53;;;3.87;;
15712;SDS011;7957;51.608;6.916;2023-09-19T07:03:23;8.73;;;3.40;;
15712;SDS011;7957;51.608;6.916;2023-09-19T07:05:51;8.50;;;3.27;;
15712;SDS011;7957;51.608;6.916;2023-09-19T07:08:21;10.57;;;4.00;;
15712;SDS011;7957;51.608;6.916;2023-09-19T07:10:48;11.97;;;3.93;;
15712;SDS011;7957;51.608;6.916;2023-09-19T07:13:17;7.83;;;3.47;;
15712;SDS011;7957;51.608;6.916;2023-09-19T07:15:44;9.53;;;3.43;;
15712;SDS011;7957;51.608;6.916;2023-09-19T07:18:12;7.13;;;3.50;;
15712;SDS011;7957;51.608;6.916;2023-09-19T07:20:39;12.47;;;4.33;;
15712;SDS011;7957;51.608;6.916;2023-09-19T07:23:14;8.53;;;3.87;;
15712;SDS011;7957;51.608;6.916;2023-09-19T07:25:43;11.53;;;4.40;;
15712;SDS011;7957;51.608;6.916;2023-09-19T07:28:11;10.60;;;4.47;;
15712;SDS011;7957;51.608;6.916;2023-09-19T07:30:39;15.13;;;4.40;;
15712;SDS011;7957;51.608;6.916;2023-09-19T07:33:07;10.53;;;4.13;;
15712;SDS011;7957;51.608;6.916;2023-09-19T07:35:36;10.53;;;3.90;;
15712;SDS011;7957;51.608;6.916;2023-09-19T07:38:04;6.70;;;3.70;;
15712;SDS011;7957;51.608;6.916;2023-09-19T07:40:32;11.23;;;3.70;;
15712;SDS011;7957;51.608;6.916;2023-09-19T07:42:59;11.23;;;3.73;;
15712;SDS011;7957;51.608;6.916;2023-09-19T07:45:26;11.07;;;4.20;;
15712;SDS011;7957;51.608;6.916;2023-09-19T07:47:56;11.17;;;4.30;;
15712;SDS011;7957;51.608;6.916;2023-09-19T07:50:25;8.57;;;4.20;;
15712;SDS011;7957;51.608;6.916;2023-09-19T07:52:53;9.97;;;4.17;;
15712;SDS011;7957;51.608;6.916;2023-09-19T07:55:21;8.73;;;3.67;;
15712;SDS011;7957;51.608;6.916;2023-09-19T07:57:50;8.53;;;3.70;;
15712;SDS011;7957;51.608;6.916;2023-09-19T08:00:18;13.70;;;4.00;;
15712;SDS011;7957;51.608;6.916;2023-09-19T08:02:45;8.53;;;3.60;;
15712;SDS011;7957;51.608;6.916;2023-09-19T08:05:15;11.93;;;4.10;;
15712;SDS011;7957;51.608;6.916;2023-09-19T08:07:46;9.47;;;3.50;;
15712;SDS011;7957;51.608;6.916;2023-09-19T08:10:13;10.30;;;3.90;;
15712;SDS011;7957;51.608;6.916;2023-09-19T08:12:45;12.60;;;4.43;;
15712;SDS011;7957;51.608;6.916;2023-09-19T08:15:14;10.40;;;3.90;;
15712;SDS011;7957;51.608;6.916;2023-09-19T08:17:41;10.57;;;3.80;;
15712;SDS011;7957;51.608;6.916;2023-09-19T08:20:11;11.57;;;4.37;;
15712;SDS011;7957;51.608;6.916;2023-09-19T08:22:43;11.83;;;4.10;;
15712;SDS011;7957;51.608;6.916;2023-09-19T08:25:14;12.83;;;4.20;;
15712;SDS011;7957;51.608;6.916;2023-09-19T08:27:43;8.03;;;3.63;;
15712;SDS011;7957;51.608;6.916;2023-09-19T08:30:13;11.13;;;3.90;;
15712;SDS011;7957;51.608;6.916;2023-09-19T08:32:41;9.50;;;3.60;;
15712;SDS011;7957;51.608;6.916;2023-09-19T08:35:08;9.07;;;3.67;;
15712;SDS011;7957;51.608;6.916;2023-09-19T08:37:35;10.17;;;3.97;;
15712;SDS011;7957;51.608;6.916;2023-09-19T08:40:04;8.30;;;3.80;;
15712;SDS011;7957;51.608;6.916;2023-09-19T08:42:46;11.27;;;4.10;;
15712;SDS011;7957;51.608;6.916;2023-09-19T08:45:18;11.17;;;3.90;;
15712;SDS011;7957;51.608;6.916;2023-09-19T08:47:50;11.27;;;4.27;;
15712;SDS011;7957;51.608;6.916;2023-09-19T08:50:36;13.37;;;4.80;;
15712;SDS011;7957;51.608;6.916;2023-09-19T08:53:11;9.30;;;3.77;;
15712;SDS011;7957;51.608;6.916;2023-09-19T08:55:44;10.80;;;3.97;;
15712;SDS011;7957;51.608;6.916;2023-09-19T08:58:12;12.33;;;4.40;;
15712;SDS011;7957;51.608;6.916;2023-09-19T09:00:44;8.47;;;3.70;;
15712;SDS011;7957;51.608;6.916;2023-09-19T09:03:14;12.40;;;4.10;;
15712;SDS011;7957;51.608;6.916;2023-09-19T09:05:46;10.30;;;4.90;;
15712;SDS011;7957;51.608;6.916;2023-09-19T09:08:15;7.50;;;3.53;;
15712;SDS011;7957;51.608;6.916;2023-09-19T09:10:47;8.73;;;4.00;;
15712;SDS011;7957;51.608;6.916;2023-09-19T09:13:14;10.40;;;3.67;;
15712;SDS011;7957;51.608;6.916;2023-09-19T09:15:41;9.63;;;3.93;;
15712;SDS011;7957;51.608;6.916;2023-09-19T09:18:09;9.47;;;4.10;;
15712;SDS011;7957;51.608;6.916;2023-09-19T09:20:39;10.33;;;4.00;;
15712;SDS011;7957;51.608;6.916;2023-09-19T09:23:06;11.13;;;4.10;;
15712;SDS011;7957;51.608;6.916;2023-09-19T09:25:51;9.70;;;4.50;;
15712;SDS011;7957;51.608;6.916;2023-09-19T09:28:22;9.93;;;4.00;;
15712;SDS011;7957;51.608;6.916;2023-09-19T09:30:50;10.20;;;4.13;;
15712;SDS011;7957;51.608;6.916;2023-09-19T09:33:20;11.30;;;3.83;;
15712;SDS011;7957;51.608;6.916;2023-09-19T09:35:48;10.23;;;4.30;;
15712;SDS011;7957;51.608;6.916;2023-09-19T09:38:18;12.13;;;4.80;;
15712;SDS011;7957;51.608;6.916;2023-09-19T09:40:46;11.67;;;4.50;;
15712;SDS011;7957;51.608;6.916;2023-09-19T09:43:32;12.33;;;4.47;;
15712;SDS011;7957;51.608;6.916;2023-09-19T09:46:09;10.50;;;4.43;;
15712;SDS011;7957;51.608;6.916;2023-09-19T09:48:55;10.10;;;3.77;;
15712;SDS011;7957;51.608;6.916;2023-09-19T09:52:05;10.37;;;3.80;;
15712;SDS011;7957;51.608;6.916;2023-09-19T09:54:41;9.70;;;4.40;;
15712;SDS011;7957;51.608;6.916;2023-09-19T09:57:26;8.47;;;3.50;;
15712;SDS011;7957;51.608;6.916;2023-09-19T09:59:55;11.67;;;3.90;;
15712;SDS011;7957;51.608;6.916;2023-09-19T10:02:41;9.47;;;3.93;;
15712;SDS011;7957;51.608;6.916;2023-09-19T10:05:14;17.97;;;4.90;;
15712;SDS011;7957;51.608;6.916;2023-09-19T10:07:55;7.77;;;3.67;;
15712;SDS011;7957;51.608;6.916;2023-09-19T10:10:29;10.17;;;4.27;;
15712;SDS011;7957;51.608;6.916;2023-09-19T10:13:04;10.37;;;4.33;;
15712;SDS011;7957;51.608;6.916;2023-09-19T10:15:38;10.23;;;4.00;;
15712;SDS011;7957;51.608;6.916;2023-09-19T10:18:07;12.27;;;4.30;;
15712;SDS011;7957;51.608;6.916;2023-09-19T10:20:43;9.97;;;4.00;;
15712;SDS011;7957;51.608;6.916;2023-09-19T10:23:18;14.07;;;4.80;;
15712;SDS011;7957;51.608;6.916;2023-09-19T10:25:52;10.73;;;4.33;;
15712;SDS011;7957;51.608;6.916;2023-09-19T10:28:20;12.67;;;4.43;;
15712;SDS011;7957;51.608;6.916;2023-09-19T10:30:48;7.63;;;4.00;;
15712;SDS011;7957;51.608;6.916;2023-09-19T10:33:19;12.23;;;4.90;;
15712;SDS011;7957;51.608;6.916;2023-09-19T10:35:48;9.83;;;4.20;;
15712;SDS011;7957;51.608;6.916;2023-09-19T10:38:23;10.50;;;4.20;;
15712;SDS011;7957;51.608;6.916;2023-09-19T10:40:52;12.80;;;4.37;;
15712;SDS011;7957;51.608;6.916;2023-09-19T10:43:25;11.80;;;4.20;;
15712;SDS011;7957;51.608;6.916;2023-09-19T10:45:57;11.87;;;4.60;;
15712;SDS011;7957;51.608;6.916;2023-09-19T10:48:29;14.03;;;4.50;;
15712;SDS011;7957;51.608;6.916;2023-09-19T10:50:57;11.27;;;4.03;;
15712;SDS011;7957;51.608;6.916;2023-09-19T10:53:45;9.47;;;3.93;;
15712;SDS011;7957;51.608;6.916;2023-09-19T10:56:16;9.20;;;4.10;;
15712;SDS011;7957;51.608;6.916;2023-09-19T10:58:49;9.27;;;4.37;;
15712;SDS011;7957;51.608;6.916;2023-09-19T11:01:16;10.90;;;4.33;;
15712;SDS011;7957;51.608;6.916;2023-09-19T11:03:45;10.87;;;3.60;;
15712;SDS011;7957;51.608;6.916;2023-09-19T11:06:14;10.10;;;4.50;;
15712;SDS011;7957;51.608;6.916;2023-09-19T11:08:53;7.90;;;3.77;;
15712;SDS011;7957;51.608;6.916;2023-09-19T11:11:38;8.57;;;3.87;;
15712;SDS011;7957;51.608;6.916;2023-09-19T11:14:15;10.27;;;4.30;;
15712;SDS011;7957;51.608;6.916;2023-09-19T11:20:17;11.47;;;3.50;;
15712;SDS011;7957;51.608;6.916;2023-09-19T11:25:57;8.83;;;3.87;;
15712;SDS011;7957;51.608;6.916;2023-09-19T11:28:28;7.87;;;3.60;;
15712;SDS011;7957;51.608;6.916;2023-09-19T11:30:58;7.63;;;3.50;;
15712;SDS011;7957;51.608;6.916;2023-09-19T11:33:25;7.37;;;3.47;;
15712;SDS011;7957;51.608;6.916;2023-09-19T11:35:58;9.17;;;3.63;;
15712;SDS011;7957;51.608;6.916;2023-09-19T11:41:38;8.30;;;3.50;;
15712;SDS011;7957;51.608;6.916;2023-09-19T11:47:06;8.07;;;3.43;;
15712;SDS011;7957;51.608;6.916;2023-09-19T11:49:35;10.73;;;4.00;;
15712;SDS011;7957;51.608;6.916;2023-09-19T11:52:07;9.13;;;3.67;;
15712;SDS011;7957;51.608;6.916;2023-09-19T11:54:53;8.93;;;3.37;;
15712;SDS011;7957;51.608;6.916;2023-09-19T11:57:23;9.07;;;3.40;;
15712;SDS011;7957;51.608;6.916;2023-09-19T11:59:53;9.47;;;3.63;;
15712;SDS011;7957;51.608;6.916;2023-09-19T12:02:32;7.87;;;3.43;;
15712;SDS011;7957;51.608;6.916;2023-09-19T12:05:16;7.80;;;3.50;;
15712;SDS011;7957;51.608;6.916;2023-09-19T12:07:59;7.40;;;3.13;;
15712;SDS011;7957;51.608;6.916;2023-09-19T12:10:32;7.07;;;3.37;;
15712;SDS011;7957;51.608;6.916;2023-09-19T12:13:01;10.13;;;3.60;;
15712;SDS011;7957;51.608;6.916;2023-09-19T12:15:34;8.73;;;3.27;;
15712;SDS011;7957;51.608;6.916;2023-09-19T12:18:05;7.33;;;3.43;;
15712;SDS011;7957;51.608;6.916;2023-09-19T12:20:42;7.03;;;3.67;;
15712;SDS011;7957;51.608;6.916;2023-09-19T12:23:12;7.53;;;3.37;;
15712;SDS011;7957;51.608;6.916;2023-09-19T12:25:41;8.93;;;3.67;;
15712;SDS011;7957;51.608;6.916;2023-09-19T12:28:13;6.97;;;3.23;;
15712;SDS011;7957;51.608;6.916;2023-09-19T12:30:41;7.10;;;3.30;;
15712;SDS011;7957;51.608;6.916;2023-09-19T12:33:14;9.07;;;3.77;;
15712;SDS011;7957;51.608;6.916;2023-09-19T12:35:44;7.07;;;3.63;;
15712;SDS011;7957;51.608;6.916;2023-09-19T12:38:21;7.40;;;3.50;;
15712;SDS011;7957;51.608;6.916;2023-09-19T12:40:53;7.80;;;3.27;;
15712;SDS011;7957;51.608;6.916;2023-09-19T12:43:22;7.87;;;3.40;;
15712;SDS011;7957;51.608;6.916;2023-09-19T12:45:49;8.50;;;3.40;;
15712;SDS011;7957;51.608;6.916;2023-09-19T12:48:21;8.00;;;3.23;;
15712;SDS011;7957;51.608;6.916;2023-09-19T12:51:00;7.47;;;3.40;;
15712;SDS011;7957;51.608;6.916;2023-09-19T12:53:31;9.80;;;3.03;;
15712;SDS011;7957;51.608;6.916;2023-09-19T12:56:04;6.80;;;3.30;;
15712;SDS011;7957;51.608;6.916;2023-09-19T12:58:35;7.43;;;3.20;;
15712;SDS011;7957;51.608;6.916;2023-09-19T13:01:15;8.50;;;3.13;;
15712;SDS011;7957;51.608;6.916;2023-09-19T13:06:43;6.53;;;3.00;;
15712;SDS011;7957;51.608;6.916;2023-09-19T13:09:11;6.17;;;3.03;;
15712;SDS011;7957;51.608;6.916;2023-09-19T13:11:42;8.10;;;3.17;;
15712;SDS011;7957;51.608;6.916;2023-09-19T13:14:16;8.93;;;3.50;;
15712;SDS011;7957;51.608;6.916;2023-09-19T13:19:41;7.73;;;3.07;;
15712;SDS011;7957;51.608;6.916;2023-09-19T13:22:37;7.23;;;3.20;;
15712;SDS011;7957;51.608;6.916;2023-09-19T13:25:05;5.03;;;2.70;;
15712;SDS011;7957;51.608;6.916;2023-09-19T13:27:38;6.03;;;3.20;;
15712;SDS011;7957;51.608;6.916;2023-09-19T13:30:09;7.87;;;3.00;;
15712;SDS011;7957;51.608;6.916;2023-09-19T13:32:40;6.83;;;3.43;;
15712;SDS011;7957;51.608;6.916;2023-09-19T13:35:11;6.80;;;3.03;;
15712;SDS011;7957;51.608;6.916;2023-09-19T13:37:42;3.80;;;2.63;;
15712;SDS011;7957;51.608;6.916;2023-09-19T13:40:10;7.03;;;2.93;;
15712;SDS011;7957;51.608;6.916;2023-09-19T13:42:37;5.23;;;2.90;;
15712;SDS011;7957;51.608;6.916;2023-09-19T13:45:05;5.17;;;2.77;;
15712;SDS011;7957;51.608;6.916;2023-09-19T13:47:36;7.17;;;2.90;;
15712;SDS011;7957;51.608;6.916;2023-09-19T13:50:04;6.03;;;2.93;;
15712;SDS011;7957;51.608;6.916;2023-09-19T13:52:35;6.53;;;2.47;;
15712;SDS011;7957;51.608;6.916;2023-09-19T13:55:03;7.07;;;2.70;;
15712;SDS011;7957;51.608;6.916;2023-09-19T13:57:34;7.33;;;2.70;;
15712;SDS011;7957;51.608;6.916;2023-09-19T14:00:01;6.03;;;2.70;;
15712;SDS011;7957;51.608;6.916;2023-09-19T14:02:31;6.80;;;3.00;;
15712;SDS011;7957;51.608;6.916;2023-09-19T14:04:58;3.90;;;2.60;;
15712;SDS011;7957;51.608;6.916;2023-09-19T14:07:26;9.07;;;2.67;;
15712;SDS011;7957;51.608;6.916;2023-09-19T14:09:56;5.87;;;2.53;;
15712;SDS011;7957;51.608;6.916;2023-09-19T14:12:22;5.20;;;2.50;;
15712;SDS011;7957;51.608;6.916;2023-09-19T14:14:49;4.77;;;2.83;;
15712;SDS011;7957;51.608;6.916;2023-09-19T14:17:21;6.57;;;2.60;;
15712;SDS011;7957;51.608;6.916;2023-09-19T14:19:52;5.97;;;2.73;;
15712;SDS011;7957;51.608;6.916;2023-09-19T14:22:19;6.07;;;2.70;;
15712;SDS011;7957;51.608;6.916;2023-09-19T14:24:46;6.33;;;2.80;;
15712;SDS011;7957;51.608;6.916;2023-09-19T14:27:13;5.77;;;2.60;;
15712;SDS011;7957;51.608;6.916;2023-09-19T14:29:40;5.87;;;2.43;;
15712;SDS011;7957;51.608;6.916;2023-09-19T14:32:07;6.80;;;2.77;;
15712;SDS011;7957;51.608;6.916;2023-09-19T14:34:35;5.90;;;2.70;;
15712;SDS011;7957;51.608;6.916;2023-09-19T14:37:09;4.83;;;2.40;;
15712;SDS011;7957;51.608;6.916;2023-09-19T14:39:36;4.63;;;2.37;;
15712;SDS011;7957;51.608;6.916;2023-09-19T14:42:03;3.80;;;1.90;;
15712;SDS011;7957;51.608;6.916;2023-09-19T14:44:31;3.83;;;2.23;;
15712;SDS011;7957;51.608;6.916;2023-09-19T14:46:58;6.33;;;2.50;;
15712;SDS011;7957;51.608;6.916;2023-09-19T14:49:25;6.10;;;2.60;;
15712;SDS011;7957;51.608;6.916;2023-09-19T14:51:52;5.97;;;2.40;;
15712;SDS011;7957;51.608;6.916;2023-09-19T14:54:20;6.60;;;2.43;;
15712;SDS011;7957;51.608;6.916;2023-09-19T14:56:49;4.73;;;2.10;;
15712;SDS011;7957;51.608;6.916;2023-09-19T14:59:29;3.07;;;1.77;;
15712;SDS011;7957;51.608;6.916;2023-09-19T15:01:56;5.90;;;2.20;;
15712;SDS011;7957;51.608;6.916;2023-09-19T15:04:23;4.90;;;2.13;;
15712;SDS011;7957;51.608;6.916;2023-09-19T15:06:52;3.67;;;1.90;;
15712;SDS011;7957;51.608;6.916;2023-09-19T15:09:21;3.80;;;1.90;;
15712;SDS011;7957;51.608;6.916;2023-09-19T15:11:51;6.87;;;2.17;;
15712;SDS011;7957;51.608;6.916;2023-09-19T15:14:18;3.60;;;1.80;;
15712;SDS011;7957;51.608;6.916;2023-09-19T15:16:45;6.30;;;1.97;;
15712;SDS011;7957;51.608;6.916;2023-09-19T15:19:13;4.60;;;2.03;;
15712;SDS011;7957;51.608;6.916;2023-09-19T15:21:40;5.40;;;1.80;;
15712;SDS011;7957;51.608;6.916;2023-09-19T15:24:07;3.70;;;1.70;;
15712;SDS011;7957;51.608;6.916;2023-09-19T15:26:37;3.33;;;1.70;;
15712;SDS011;7957;51.608;6.916;2023-09-19T15:29:04;5.73;;;1.87;;
15712;SDS011;7957;51.608;6.916;2023-09-19T15:31:32;5.43;;;2.10;;
15712;SDS011;7957;51.608;6.916;2023-09-19T15:33:59;5.37;;;2.00;;
15712;SDS011;7957;51.608;6.916;2023-09-19T15:36:26;3.47;;;1.60;;